createdAt,value
2017-03-18T00:00:01.546Z,12.83
2017-03-18T00:00:42.045Z,12.75
2017-03-18T00:01:22.550Z,12.74
2017-03-18T00:02:03.072Z,12.75
2017-03-18T00:02:43.573Z,12.87
2017-03-18T00:03:24.095Z,12.78
2017-03-18T00:04:04.565Z,12.87
2017-03-18T00:04:45.053Z,12.85
2017-03-18T00:05:25.555Z,12.82
2017-03-18T00:06:06.067Z,12.92
2017-03-18T00:06:46.577Z,12.93
2017-03-18T00:07:27.067Z,13.01
2017-03-18T00:08:07.575Z,12.79
2017-03-18T00:08:48.059Z,12.68
2017-03-18T00:09:28.563Z,12.64
2017-03-18T00:10:09.025Z,12.7
2017-03-18T00:10:49.551Z,12.74
2017-03-18T00:11:30.060Z,12.72
2017-03-18T00:12:10.515Z,12.72
2017-03-18T00:12:51.052Z,12.83
2017-03-18T00:13:31.527Z,12.79
2017-03-18T00:14:12.020Z,12.75
2017-03-18T00:14:52.519Z,12.92
2017-03-18T00:15:33.045Z,12.87
2017-03-18T00:16:13.494Z,12.85
2017-03-18T00:16:53.986Z,12.75
2017-03-18T00:17:34.491Z,12.87
2017-03-18T00:18:15.032Z,12.78
2017-03-18T00:18:55.504Z,12.97
2017-03-18T00:19:36.052Z,12.77
2017-03-18T00:20:16.501Z,12.78
2017-03-18T00:20:57.009Z,12.93
2017-03-18T00:21:37.454Z,12.96
2017-03-18T00:22:18.031Z,12.95
2017-03-18T00:22:58.501Z,12.96
2017-03-18T00:23:39.033Z,12.83
2017-03-18T00:24:19.565Z,12.79
2017-03-18T00:25:00.042Z,12.77
2017-03-18T00:25:40.517Z,12.74
2017-03-18T00:26:20.998Z,12.89
2017-03-18T00:27:01.521Z,12.75
2017-03-18T00:27:42.046Z,12.72
2017-03-18T00:28:22.561Z,12.83
2017-03-18T00:29:02.995Z,12.74
2017-03-18T00:29:43.509Z,12.71
2017-03-18T00:30:23.996Z,12.82
2017-03-18T00:31:04.502Z,12.57
2017-03-18T00:31:44.998Z,12.62
2017-03-18T00:32:25.510Z,12.68
2017-03-18T00:33:05.986Z,12.7
2017-03-18T00:33:46.509Z,12.62
2017-03-18T00:34:26.954Z,12.68
2017-03-18T00:35:07.469Z,12.64
2017-03-18T00:35:47.961Z,12.57
2017-03-18T00:36:28.435Z,12.68
2017-03-18T00:37:08.946Z,12.65
2017-03-18T00:37:49.416Z,12.57
2017-03-18T00:38:29.942Z,12.52
2017-03-18T00:39:10.421Z,12.49
2017-03-18T00:39:50.962Z,12.65
2017-03-18T00:40:31.510Z,12.64
2017-03-18T00:41:11.964Z,12.7
2017-03-18T00:41:52.517Z,12.64
2017-03-18T00:42:33.026Z,12.71
2017-03-18T00:43:13.514Z,12.65
2017-03-18T00:43:53.986Z,12.53
2017-03-18T00:44:34.497Z,12.77
2017-03-18T00:45:14.991Z,12.54
2017-03-18T00:45:55.511Z,12.6
2017-03-18T00:46:35.984Z,12.72
2017-03-18T00:47:16.549Z,12.68
2017-03-18T00:47:57.045Z,12.65
2017-03-18T00:48:38.472Z,12.53
2017-03-18T00:49:18.910Z,12.57
2017-03-18T00:49:59.434Z,12.62
2017-03-18T00:50:39.975Z,12.49
2017-03-18T00:51:20.483Z,12.65
2017-03-18T00:52:00.969Z,12.45
2017-03-18T00:52:41.498Z,12.42
2017-03-18T00:53:21.973Z,12.39
2017-03-18T00:54:02.505Z,12.35
2017-03-18T00:54:42.963Z,12.39
2017-03-18T00:55:23.416Z,12.52
2017-03-18T00:56:03.921Z,12.53
2017-03-18T00:56:44.422Z,12.62
2017-03-18T00:57:24.920Z,12.5
2017-03-18T00:58:05.428Z,12.49
2017-03-18T00:58:45.907Z,12.46
2017-03-18T00:59:26.415Z,12.5
2017-03-18T01:00:06.920Z,12.54
2017-03-18T01:00:47.424Z,12.62
2017-03-18T01:01:27.914Z,12.6
2017-03-18T01:02:08.448Z,12.52
2017-03-18T01:02:48.908Z,12.49
2017-03-18T01:03:29.415Z,12.54
2017-03-18T01:04:09.918Z,12.65
2017-03-18T01:04:50.379Z,12.62
2017-03-18T01:05:30.921Z,12.67
2017-03-18T01:06:11.361Z,12.7
2017-03-18T01:06:51.872Z,12.64
2017-03-18T01:07:32.488Z,12.72
2017-03-18T01:08:12.932Z,12.67
2017-03-18T01:08:53.460Z,12.65
2017-03-18T01:09:33.911Z,12.57
2017-03-18T01:10:14.420Z,12.71
2017-03-18T01:10:54.935Z,12.71
2017-03-18T01:11:35.367Z,12.71
2017-03-18T01:12:15.887Z,12.67
2017-03-18T01:12:56.345Z,12.68
2017-03-18T01:13:36.843Z,12.67
2017-03-18T01:14:17.339Z,12.72
2017-03-18T01:14:57.837Z,12.72
2017-03-18T01:15:38.352Z,12.64
2017-03-18T01:16:18.873Z,12.6
2017-03-18T01:16:59.349Z,12.71
2017-03-18T01:17:39.937Z,12.72
2017-03-18T01:18:20.402Z,12.71
2017-03-18T01:19:00.937Z,12.71
2017-03-18T01:19:41.366Z,12.7
2017-03-18T01:20:21.893Z,12.62
2017-03-18T01:21:02.420Z,12.68
2017-03-18T01:21:42.846Z,12.6
2017-03-18T01:22:23.347Z,12.62
2017-03-18T01:23:03.862Z,12.7
2017-03-18T01:23:44.342Z,12.68
2017-03-18T01:24:24.837Z,12.68
2017-03-18T01:25:05.365Z,12.68
2017-03-18T01:25:45.835Z,12.7
2017-03-18T01:26:26.336Z,12.68
2017-03-18T01:27:06.802Z,12.6
2017-03-18T01:27:47.338Z,12.53
2017-03-18T01:28:27.785Z,12.53
2017-03-18T01:29:08.296Z,12.53
2017-03-18T01:29:48.843Z,12.57
2017-03-18T01:30:29.429Z,12.68
2017-03-18T01:31:09.886Z,12.53
2017-03-18T01:31:50.385Z,12.6
2017-03-18T01:32:30.881Z,12.57
2017-03-18T01:33:11.419Z,12.74
2017-03-18T01:33:51.909Z,12.65
2017-03-18T01:34:32.343Z,12.62
2017-03-18T01:35:12.899Z,12.72
2017-03-18T01:35:53.396Z,12.74
2017-03-18T01:36:33.938Z,12.68
2017-03-18T01:37:14.438Z,12.74
2017-03-18T01:37:54.901Z,12.68
2017-03-18T01:38:35.414Z,12.74
2017-03-18T01:39:15.896Z,12.75
2017-03-18T01:39:56.458Z,12.65
2017-03-18T01:40:36.960Z,12.67
2017-03-18T01:41:17.437Z,12.75
2017-03-18T01:41:57.945Z,12.87
2017-03-18T01:42:38.403Z,12.74
2017-03-18T01:43:18.935Z,12.79
2017-03-18T01:43:59.447Z,12.68
2017-03-18T01:44:39.952Z,12.67
2017-03-18T01:45:20.359Z,12.65
2017-03-18T01:46:00.952Z,12.72
2017-03-18T01:46:41.397Z,12.7
2017-03-18T01:47:21.882Z,12.74
2017-03-18T01:48:02.373Z,12.83
2017-03-18T01:48:42.873Z,12.75
2017-03-18T01:49:23.344Z,12.72
2017-03-18T01:50:03.844Z,12.67
2017-03-18T01:50:44.330Z,12.75
2017-03-18T01:51:24.778Z,12.65
2017-03-18T01:52:05.311Z,12.62
2017-03-18T01:52:45.798Z,12.64
2017-03-18T01:53:26.264Z,12.75
2017-03-18T01:54:06.777Z,12.75
2017-03-18T01:54:47.277Z,12.78
2017-03-18T01:55:27.792Z,12.87
2017-03-18T01:56:08.282Z,12.83
2017-03-18T01:56:48.814Z,12.68
2017-03-18T01:57:29.277Z,12.77
2017-03-18T01:58:09.760Z,12.89
2017-03-18T01:58:50.295Z,12.67
2017-03-18T01:59:30.754Z,12.68
2017-03-18T02:00:11.216Z,12.7
2017-03-18T02:00:51.728Z,12.57
2017-03-18T02:01:32.201Z,12.6
2017-03-18T02:02:12.676Z,12.65
2017-03-18T02:02:53.172Z,12.71
2017-03-18T02:03:33.669Z,12.7
2017-03-18T02:04:14.200Z,12.6
2017-03-18T02:04:54.672Z,12.68
2017-03-18T02:05:35.162Z,12.67
2017-03-18T02:06:15.654Z,12.65
2017-03-18T02:06:56.111Z,12.56
2017-03-18T02:07:36.634Z,12.54
2017-03-18T02:08:17.126Z,12.59
2017-03-18T02:08:57.688Z,12.67
2017-03-18T02:09:38.182Z,12.59
2017-03-18T02:10:18.695Z,12.62
2017-03-18T02:10:59.180Z,12.65
2017-03-18T02:11:39.675Z,12.67
2017-03-18T02:12:20.189Z,12.65
2017-03-18T02:13:00.691Z,12.62
2017-03-18T02:13:41.136Z,12.64
2017-03-18T02:14:21.621Z,12.64
2017-03-18T02:15:02.140Z,12.74
2017-03-18T02:15:42.657Z,12.53
2017-03-18T02:16:23.177Z,12.49
2017-03-18T02:17:03.584Z,12.56
2017-03-18T02:17:44.111Z,12.68
2017-03-18T02:18:24.582Z,12.57
2017-03-18T02:19:05.103Z,12.62
2017-03-18T02:19:45.589Z,12.52
2017-03-18T02:20:26.096Z,12.37
2017-03-18T02:21:06.566Z,12.46
2017-03-18T02:21:47.053Z,12.5
2017-03-18T02:22:27.525Z,12.56
2017-03-18T02:23:08.002Z,12.68
2017-03-18T02:23:48.515Z,12.59
2017-03-18T02:24:29.021Z,12.5
2017-03-18T02:25:09.499Z,12.37
2017-03-18T02:25:49.990Z,12.37
2017-03-18T02:26:30.485Z,12.21
2017-03-18T02:27:10.991Z,12.12
2017-03-18T02:27:51.483Z,12.38
2017-03-18T02:28:32.019Z,12.1
2017-03-18T02:29:12.478Z,12.2
2017-03-18T02:29:53.008Z,12.07
2017-03-18T02:30:33.487Z,12.19
2017-03-18T02:31:14.006Z,12.27
2017-03-18T02:31:54.500Z,12.23
2017-03-18T02:32:34.982Z,12.17
2017-03-18T02:33:15.461Z,12.09
2017-03-18T02:33:55.968Z,12.14
2017-03-18T02:34:36.449Z,12.09
2017-03-18T02:35:16.927Z,12.24
2017-03-18T02:35:57.443Z,12.17
2017-03-18T02:36:38.007Z,12.14
2017-03-18T02:37:18.516Z,12.14
2017-03-18T02:37:59.008Z,12.19
2017-03-18T02:38:39.469Z,12.09
2017-03-18T02:39:19.957Z,12.29
2017-03-18T02:40:00.458Z,12.16
2017-03-18T02:40:40.958Z,12.1
2017-03-18T02:41:21.459Z,12.09
2017-03-18T02:42:01.915Z,12.17
2017-03-18T02:42:42.452Z,12.14
2017-03-18T02:43:22.914Z,12.17
2017-03-18T02:44:03.427Z,12.28
2017-03-18T02:44:43.924Z,12.28
2017-03-18T02:45:24.507Z,12.28
2017-03-18T02:47:02.518Z,12.27
2017-03-18T02:47:42.954Z,12.12
2017-03-18T02:48:23.484Z,12.02
2017-03-18T02:49:03.973Z,12.09
2017-03-18T02:49:44.402Z,11.95
2017-03-18T02:50:24.869Z,12.04
2017-03-18T02:51:05.410Z,12.16
2017-03-18T02:51:45.907Z,12.09
2017-03-18T02:52:26.350Z,11.96
2017-03-18T02:53:06.838Z,11.94
2017-03-18T02:53:47.321Z,11.96
2017-03-18T02:54:27.799Z,11.95
2017-03-18T02:55:08.301Z,11.88
2017-03-18T02:55:48.823Z,11.94
2017-03-18T02:56:29.308Z,11.96
2017-03-18T02:57:09.789Z,11.95
2017-03-18T02:57:50.266Z,11.95
2017-03-18T02:58:30.778Z,11.8
2017-03-18T02:59:11.353Z,11.96
2017-03-18T02:59:51.865Z,11.75
2017-03-18T03:00:32.337Z,11.75
2017-03-18T03:01:12.854Z,11.69
2017-03-18T03:01:53.356Z,11.76
2017-03-18T03:02:33.831Z,11.83
2017-03-18T03:03:14.355Z,11.79
2017-03-18T03:03:54.857Z,11.9
2017-03-18T03:04:35.300Z,11.86
2017-03-18T03:05:15.772Z,11.9
2017-03-18T03:05:56.280Z,11.88
2017-03-18T03:06:36.811Z,11.64
2017-03-18T03:07:17.295Z,11.82
2017-03-18T03:07:57.821Z,11.8
2017-03-18T03:08:38.296Z,11.94
2017-03-18T03:09:18.794Z,11.88
2017-03-18T03:09:59.311Z,11.98
2017-03-18T03:10:39.773Z,11.95
2017-03-18T03:11:20.345Z,11.96
2017-03-18T03:12:00.824Z,11.99
2017-03-18T03:12:41.333Z,11.94
2017-03-18T03:13:21.836Z,11.95
2017-03-18T03:14:02.351Z,11.88
2017-03-18T03:14:42.858Z,11.85
2017-03-18T03:15:23.344Z,11.86
2017-03-18T03:16:03.840Z,11.8
2017-03-18T03:16:44.343Z,11.85
2017-03-18T03:17:24.792Z,11.76
2017-03-18T03:18:05.295Z,11.78
2017-03-18T03:18:45.778Z,11.83
2017-03-18T03:19:26.319Z,11.86
2017-03-18T03:20:06.786Z,11.8
2017-03-18T03:20:47.322Z,11.83
2017-03-18T03:21:27.764Z,11.95
2017-03-18T03:22:08.284Z,11.98
2017-03-18T03:22:48.746Z,11.78
2017-03-18T03:23:29.235Z,11.73
2017-03-18T03:24:09.762Z,11.65
2017-03-18T03:24:50.251Z,11.79
2017-03-18T03:25:30.740Z,11.79
2017-03-18T03:26:11.285Z,11.82
2017-03-18T03:26:51.774Z,11.73
2017-03-18T03:27:32.236Z,11.9
2017-03-18T03:28:12.745Z,11.72
2017-03-18T03:28:53.292Z,11.72
2017-03-18T03:29:33.737Z,11.73
2017-03-18T03:30:14.247Z,11.65
2017-03-18T03:30:54.749Z,11.52
2017-03-18T03:31:35.226Z,11.51
2017-03-18T03:32:15.733Z,11.58
2017-03-18T03:32:56.198Z,11.46
2017-03-18T03:33:36.750Z,11.52
2017-03-18T03:34:17.199Z,11.62
2017-03-18T03:34:57.681Z,11.67
2017-03-18T03:35:38.231Z,11.73
2017-03-18T03:36:18.678Z,11.61
2017-03-18T03:36:59.172Z,11.57
2017-03-18T03:37:39.613Z,11.55
2017-03-18T03:38:20.182Z,11.54
2017-03-18T03:39:00.688Z,11.52
2017-03-18T03:39:41.127Z,11.52
2017-03-18T03:40:21.596Z,11.6
2017-03-18T03:41:02.092Z,11.64
2017-03-18T03:41:42.606Z,11.69
2017-03-18T03:42:23.090Z,11.6
2017-03-18T03:43:03.857Z,11.51
2017-03-18T03:43:44.334Z,11.72
2017-03-18T03:44:24.835Z,11.7
2017-03-18T03:45:05.370Z,11.73
2017-03-18T03:45:45.826Z,11.78
2017-03-18T03:46:26.323Z,11.85
2017-03-18T03:47:06.808Z,11.76
2017-03-18T03:47:47.277Z,11.67
2017-03-18T03:48:27.774Z,11.65
2017-03-18T03:49:08.308Z,11.73
2017-03-18T03:49:48.807Z,11.69
2017-03-18T03:50:29.260Z,11.61
2017-03-18T03:51:09.762Z,11.7
2017-03-18T03:51:50.225Z,11.67
2017-03-18T03:52:30.721Z,11.72
2017-03-18T03:53:11.206Z,11.73
2017-03-18T03:53:51.673Z,11.83
2017-03-18T03:54:32.204Z,11.94
2017-03-18T03:55:12.668Z,11.94
2017-03-18T03:55:53.210Z,11.82
2017-03-18T03:56:33.702Z,11.83
2017-03-18T03:57:14.217Z,11.73
2017-03-18T03:57:54.672Z,11.79
2017-03-18T03:58:35.175Z,11.8
2017-03-18T03:59:15.666Z,11.82
2017-03-18T03:59:56.157Z,11.78
2017-03-18T04:00:36.681Z,11.8
2017-03-18T04:01:17.122Z,11.83
2017-03-18T04:01:57.634Z,11.86
2017-03-18T04:02:38.116Z,11.9
2017-03-18T04:03:18.601Z,11.76
2017-03-18T04:03:59.084Z,11.76
2017-03-18T04:04:39.574Z,11.8
2017-03-18T04:05:20.109Z,11.88
2017-03-18T04:06:00.555Z,11.91
2017-03-18T04:06:41.104Z,11.83
2017-03-18T04:07:21.579Z,11.82
2017-03-18T04:08:02.615Z,11.79
2017-03-18T04:08:42.542Z,11.64
2017-03-18T04:09:23.022Z,11.73
2017-03-18T04:10:03.507Z,11.65
2017-03-18T04:10:44.044Z,11.7
2017-03-18T04:11:24.547Z,11.7
2017-03-18T04:12:05.009Z,11.73
2017-03-18T04:12:45.533Z,11.86
2017-03-18T04:13:25.981Z,11.83
2017-03-18T04:14:06.518Z,11.8
2017-03-18T04:14:46.985Z,11.73
2017-03-18T04:15:27.434Z,11.79
2017-03-18T04:16:07.937Z,11.72
2017-03-18T04:16:48.428Z,11.72
2017-03-18T04:17:28.909Z,11.7
2017-03-18T04:18:09.439Z,11.73
2017-03-18T04:18:49.981Z,11.73
2017-03-18T04:19:30.498Z,11.82
2017-03-18T04:20:10.971Z,11.67
2017-03-18T04:20:51.443Z,11.7
2017-03-18T04:21:31.904Z,11.72
2017-03-18T04:22:12.411Z,11.76
2017-03-18T04:22:52.904Z,11.76
2017-03-18T04:23:33.414Z,11.76
2017-03-18T04:24:13.938Z,11.72
2017-03-18T04:24:54.417Z,11.7
2017-03-18T04:25:34.896Z,11.65
2017-03-18T04:26:15.422Z,11.69
2017-03-18T04:26:55.897Z,11.46
2017-03-18T04:27:36.427Z,11.62
2017-03-18T04:28:16.885Z,11.6
2017-03-18T04:28:57.397Z,11.64
2017-03-18T04:29:37.893Z,11.64
2017-03-18T04:30:18.380Z,11.51
2017-03-18T04:30:58.860Z,11.62
2017-03-18T04:31:39.340Z,11.6
2017-03-18T04:32:19.837Z,11.54
2017-03-18T04:33:00.355Z,11.58
2017-03-18T04:33:40.836Z,11.6
2017-03-18T04:34:21.304Z,11.62
2017-03-18T04:35:01.797Z,11.69
2017-03-18T04:35:42.292Z,11.58
2017-03-18T04:36:22.753Z,11.55
2017-03-18T04:37:03.217Z,11.6
2017-03-18T04:37:43.728Z,11.73
2017-03-18T04:38:24.232Z,11.73
2017-03-18T04:39:04.748Z,11.7
2017-03-18T04:39:45.283Z,11.72
2017-03-18T04:40:25.784Z,11.7
2017-03-18T04:41:06.257Z,11.82
2017-03-18T04:41:46.757Z,11.67
2017-03-18T04:42:27.230Z,11.72
2017-03-18T04:43:07.733Z,11.79
2017-03-18T04:43:48.264Z,11.6
2017-03-18T04:44:28.781Z,11.54
2017-03-18T04:45:09.313Z,11.51
2017-03-18T04:45:49.814Z,11.42
2017-03-18T04:46:30.298Z,11.52
2017-03-18T04:47:10.784Z,11.42
2017-03-18T04:47:51.282Z,11.49
2017-03-18T04:48:31.796Z,11.39
2017-03-18T04:49:12.293Z,11.54
2017-03-18T04:49:52.784Z,11.54
2017-03-18T04:50:33.300Z,11.54
2017-03-18T04:51:13.801Z,11.55
2017-03-18T04:51:54.294Z,11.55
2017-03-18T04:52:34.771Z,11.51
2017-03-18T04:53:15.314Z,11.61
2017-03-18T04:53:55.785Z,11.64
2017-03-18T04:54:36.315Z,11.6
2017-03-18T04:55:16.766Z,11.64
2017-03-18T04:55:57.239Z,11.64
2017-03-18T04:56:37.785Z,11.43
2017-03-18T04:57:18.270Z,11.6
2017-03-18T04:57:58.728Z,11.6
2017-03-18T04:58:39.198Z,11.61
2017-03-18T04:59:19.725Z,11.75
2017-03-18T05:00:00.207Z,11.44
2017-03-18T05:00:40.665Z,11.58
2017-03-18T05:01:21.181Z,11.6
2017-03-18T05:02:01.720Z,11.54
2017-03-18T05:02:42.167Z,11.57
2017-03-18T05:03:22.672Z,11.52
2017-03-18T05:04:03.206Z,11.46
2017-03-18T05:04:43.678Z,11.46
2017-03-18T05:05:24.205Z,11.47
2017-03-18T05:06:04.654Z,11.37
2017-03-18T05:06:45.133Z,11.49
2017-03-18T05:07:25.670Z,11.42
2017-03-18T05:08:06.160Z,11.51
2017-03-18T05:08:46.634Z,11.52
2017-03-18T05:09:27.143Z,11.51
2017-03-18T05:10:08.282Z,11.55
2017-03-18T05:10:49.072Z,11.52
2017-03-18T05:11:29.687Z,11.37
2017-03-18T05:12:10.164Z,11.54
2017-03-18T05:12:50.672Z,11.61
2017-03-18T05:13:31.147Z,11.42
2017-03-18T05:14:11.648Z,11.57
2017-03-18T05:14:52.119Z,11.37
2017-03-18T05:15:32.695Z,11.36
2017-03-18T05:16:13.149Z,11.33
2017-03-18T05:16:53.682Z,11.27
2017-03-18T05:17:34.146Z,11.36
2017-03-18T05:18:14.587Z,11.37
2017-03-18T05:18:55.170Z,11.46
2017-03-18T05:19:35.562Z,11.37
2017-03-18T05:20:16.103Z,11.44
2017-03-18T05:20:56.578Z,11.43
2017-03-18T05:21:37.062Z,11.32
2017-03-18T05:22:17.511Z,11.43
2017-03-18T05:22:58.032Z,11.44
2017-03-18T05:23:38.484Z,11.24
2017-03-18T05:24:18.954Z,11.17
2017-03-18T05:24:59.486Z,11.17
2017-03-18T05:25:39.889Z,11.19
2017-03-18T05:26:20.405Z,11.29
2017-03-18T05:27:00.895Z,11.35
2017-03-18T05:27:41.425Z,11.24
2017-03-18T05:28:21.882Z,11.21
2017-03-18T05:29:02.371Z,11.28
2017-03-18T05:29:42.918Z,11.21
2017-03-18T05:30:23.424Z,11.25
2017-03-18T05:31:03.928Z,11.33
2017-03-18T05:31:44.395Z,11.4
2017-03-18T05:32:24.896Z,11.28
2017-03-18T05:33:05.345Z,11.32
2017-03-18T05:33:45.889Z,11.17
2017-03-18T05:34:26.360Z,11.06
2017-03-18T05:35:06.861Z,10.99
2017-03-18T05:35:47.371Z,11.07
2017-03-18T05:36:27.840Z,11.07
2017-03-18T05:37:08.404Z,11.04
2017-03-18T05:37:48.814Z,11.09
2017-03-18T05:38:29.335Z,11.04
2017-03-18T05:39:09.801Z,11.09
2017-03-18T05:39:50.330Z,11.22
2017-03-18T05:40:30.786Z,11.11
2017-03-18T05:41:11.271Z,11.02
2017-03-18T05:41:51.763Z,10.85
2017-03-18T05:42:32.237Z,10.91
2017-03-18T05:43:12.708Z,10.79
2017-03-18T05:43:53.240Z,10.79
2017-03-18T05:44:33.776Z,11
2017-03-18T05:45:14.250Z,10.78
2017-03-18T05:45:54.754Z,10.92
2017-03-18T05:46:35.268Z,11.07
2017-03-18T05:47:15.760Z,11.03
2017-03-18T05:47:56.280Z,10.99
2017-03-18T05:48:36.799Z,10.88
2017-03-18T05:49:17.382Z,10.81
2017-03-18T05:49:57.828Z,10.79
2017-03-18T05:50:38.356Z,10.82
2017-03-18T05:51:18.820Z,10.81
2017-03-18T05:51:59.334Z,10.79
2017-03-18T05:52:39.814Z,10.78
2017-03-18T05:53:20.320Z,10.68
2017-03-18T05:54:00.826Z,10.73
2017-03-18T05:54:41.320Z,10.82
2017-03-18T05:55:21.786Z,10.78
2017-03-18T05:56:02.265Z,10.84
2017-03-18T05:56:42.737Z,10.85
2017-03-18T05:57:23.279Z,10.81
2017-03-18T05:58:03.731Z,10.89
2017-03-18T05:58:44.249Z,10.79
2017-03-18T05:59:24.740Z,10.82
2017-03-18T06:00:05.329Z,10.88
2017-03-18T06:00:46.165Z,10.92
2017-03-18T06:01:30.124Z,10.82
2017-03-18T06:02:10.879Z,10.79
2017-03-18T06:02:51.372Z,10.73
2017-03-18T06:03:38.971Z,10.76
2017-03-18T06:04:20.650Z,10.84
2017-03-18T06:05:03.453Z,10.86
2017-03-18T06:05:48.270Z,10.94
2017-03-18T06:06:32.519Z,10.97
2017-03-18T06:07:13.886Z,10.79
2017-03-18T06:07:55.257Z,10.79
2017-03-18T06:08:34.844Z,10.84
2017-03-18T06:09:15.360Z,10.81
2017-03-18T06:09:55.836Z,10.79
2017-03-18T06:10:36.501Z,10.79
2017-03-18T06:11:17.003Z,10.78
2017-03-18T06:11:57.575Z,10.79
2017-03-18T06:12:38.009Z,10.81
2017-03-18T06:13:18.821Z,10.86
2017-03-18T06:13:59.676Z,11.03
2017-03-18T06:14:39.958Z,11.11
2017-03-18T06:15:20.525Z,10.99
2017-03-18T06:16:01.002Z,11.07
2017-03-18T06:16:41.453Z,11.17
2017-03-18T06:17:22.025Z,11.14
2017-03-18T06:18:02.536Z,11.11
2017-03-18T06:18:43.022Z,11.09
2017-03-18T06:19:23.514Z,11.02
2017-03-18T06:20:04.044Z,11
2017-03-18T06:20:44.506Z,10.97
2017-03-18T06:21:25.003Z,10.96
2017-03-18T06:22:05.470Z,10.84
2017-03-18T06:22:45.958Z,10.92
2017-03-18T06:23:26.497Z,10.91
2017-03-18T06:24:07.074Z,11.02
2017-03-18T06:24:47.492Z,11.06
2017-03-18T06:25:28.025Z,11.06
2017-03-18T06:26:08.553Z,10.94
2017-03-18T06:26:48.978Z,10.81
2017-03-18T06:27:29.529Z,10.94
2017-03-18T06:28:09.990Z,10.94
2017-03-18T06:28:50.500Z,10.92
2017-03-18T06:29:30.938Z,10.96
2017-03-18T06:30:11.415Z,10.96
2017-03-18T06:30:51.899Z,11.04
2017-03-18T06:31:32.455Z,11.06
2017-03-18T06:32:12.906Z,10.99
2017-03-18T06:32:53.454Z,11.02
2017-03-18T06:33:34.095Z,11.1
2017-03-18T06:34:14.617Z,11
2017-03-18T06:34:55.089Z,11.11
2017-03-18T06:35:35.623Z,11.04
2017-03-18T06:36:16.092Z,10.96
2017-03-18T06:36:56.601Z,11
2017-03-18T06:37:37.096Z,11.04
2017-03-18T06:38:17.630Z,10.99
2017-03-18T06:38:58.088Z,11.07
2017-03-18T06:39:38.575Z,11.03
2017-03-18T06:40:19.084Z,10.94
2017-03-18T06:40:59.580Z,11.07
2017-03-18T06:41:40.071Z,10.99
2017-03-18T06:42:20.559Z,10.96
2017-03-18T06:43:01.004Z,10.94
2017-03-18T06:43:41.537Z,11.06
2017-03-18T06:44:21.975Z,10.99
2017-03-18T06:45:02.531Z,10.96
2017-03-18T06:45:43.007Z,11.07
2017-03-18T06:46:23.480Z,10.96
2017-03-18T06:47:03.986Z,11
2017-03-18T06:47:44.470Z,10.86
2017-03-18T06:48:24.975Z,10.85
2017-03-18T06:49:05.487Z,10.92
2017-03-18T06:49:45.935Z,10.96
2017-03-18T06:50:26.467Z,11.04
2017-03-18T06:51:06.998Z,11.06
2017-03-18T06:51:47.477Z,11.02
2017-03-18T06:52:27.966Z,10.99
2017-03-18T06:53:08.483Z,10.96
2017-03-18T06:53:48.971Z,11.04
2017-03-18T06:54:29.426Z,11.04
2017-03-18T06:55:09.931Z,11.09
2017-03-18T06:55:50.428Z,11.09
2017-03-18T06:56:30.916Z,11.15
2017-03-18T06:57:11.399Z,11.19
2017-03-18T06:57:51.981Z,11.19
2017-03-18T06:58:32.434Z,11.19
2017-03-18T06:59:12.903Z,11.22
2017-03-18T06:59:53.419Z,11.14
2017-03-18T07:00:33.893Z,10.96
2017-03-18T07:01:14.422Z,10.99
2017-03-18T07:01:54.865Z,11.03
2017-03-18T07:02:35.386Z,11.02
2017-03-18T07:03:15.888Z,10.99
2017-03-18T07:03:56.393Z,10.97
2017-03-18T07:04:36.873Z,11.04
2017-03-18T07:05:17.371Z,11.07
2017-03-18T07:05:57.837Z,11.18
2017-03-18T07:06:38.352Z,11.17
2017-03-18T07:07:18.865Z,10.96
2017-03-18T07:07:59.381Z,10.97
2017-03-18T07:08:39.873Z,10.94
2017-03-18T07:09:20.358Z,10.91
2017-03-18T07:10:00.897Z,11.06
2017-03-18T07:10:41.367Z,11.02
2017-03-18T07:11:21.859Z,11
2017-03-18T07:12:02.379Z,10.97
2017-03-18T07:12:43.030Z,11.1
2017-03-18T07:13:23.520Z,11.06
2017-03-18T07:14:04.124Z,11.03
2017-03-18T07:14:44.611Z,11.09
2017-03-18T07:15:25.117Z,11
2017-03-18T07:16:05.679Z,11.1
2017-03-18T07:16:46.137Z,10.97
2017-03-18T07:17:26.689Z,10.84
2017-03-18T07:18:07.167Z,10.97
2017-03-18T07:18:47.718Z,10.94
2017-03-18T07:19:28.271Z,11.03
2017-03-18T07:20:08.756Z,10.99
2017-03-18T07:20:49.217Z,10.78
2017-03-18T07:21:29.703Z,10.97
2017-03-18T07:22:10.230Z,10.92
2017-03-18T07:22:50.811Z,10.89
2017-03-18T07:23:31.301Z,10.76
2017-03-18T07:24:11.995Z,10.79
2017-03-18T07:24:52.450Z,10.71
2017-03-18T07:25:32.977Z,10.86
2017-03-18T07:26:13.598Z,10.81
2017-03-18T07:26:53.986Z,10.85
2017-03-18T07:27:34.499Z,10.81
2017-03-18T07:28:15.013Z,10.74
2017-03-18T07:28:55.521Z,10.79
2017-03-18T07:29:36.004Z,10.78
2017-03-18T07:30:16.478Z,10.82
2017-03-18T07:30:56.961Z,10.78
2017-03-18T07:31:37.429Z,10.81
2017-03-18T07:32:17.927Z,10.88
2017-03-18T07:32:59.195Z,10.76
2017-03-18T07:33:38.997Z,10.76
2017-03-18T07:34:19.476Z,10.82
2017-03-18T07:34:59.993Z,10.78
2017-03-18T07:35:40.702Z,10.81
2017-03-18T07:36:21.143Z,10.82
2017-03-18T07:37:01.618Z,10.84
2017-03-18T07:37:42.099Z,10.81
2017-03-18T07:38:22.579Z,10.81
2017-03-18T07:39:03.074Z,10.63
2017-03-18T07:39:43.582Z,10.63
2017-03-18T07:40:24.041Z,10.51
2017-03-18T07:41:04.492Z,10.53
2017-03-18T07:41:45.032Z,10.6
2017-03-18T07:42:25.515Z,10.64
2017-03-18T07:43:06.007Z,10.6
2017-03-18T07:43:46.494Z,10.67
2017-03-18T07:44:26.973Z,10.63
2017-03-18T07:45:07.561Z,10.73
2017-03-18T07:45:48.014Z,10.76
2017-03-18T07:46:28.464Z,10.79
2017-03-18T07:47:08.966Z,10.85
2017-03-18T07:47:49.427Z,10.84
2017-03-18T07:48:29.968Z,10.82
2017-03-18T07:49:10.616Z,10.86
2017-03-18T07:49:51.105Z,10.82
2017-03-18T07:50:31.576Z,10.81
2017-03-18T07:51:12.070Z,10.86
2017-03-18T07:51:52.534Z,10.78
2017-03-18T07:52:33.111Z,10.78
2017-03-18T07:53:13.532Z,10.82
2017-03-18T07:53:54.131Z,10.88
2017-03-18T07:54:34.611Z,10.84
2017-03-18T07:55:15.107Z,10.82
2017-03-18T07:55:55.672Z,10.86
2017-03-18T07:56:36.087Z,10.86
2017-03-18T07:57:16.532Z,10.79
2017-03-18T07:57:57.036Z,10.82
2017-03-18T07:58:37.674Z,10.79
2017-03-18T07:59:18.116Z,10.92
2017-03-18T07:59:58.634Z,10.96
2017-03-18T08:00:39.867Z,10.91
2017-03-18T08:01:21.032Z,10.89
2017-03-18T08:02:01.523Z,10.97
2017-03-18T08:02:42.016Z,10.99
2017-03-18T08:03:22.573Z,10.96
2017-03-18T08:04:04.093Z,10.96
2017-03-18T08:04:44.638Z,10.97
2017-03-18T08:05:25.133Z,11.06
2017-03-18T08:06:05.658Z,10.92
2017-03-18T08:06:46.169Z,11.03
2017-03-18T08:07:26.693Z,10.94
2017-03-18T08:08:07.181Z,10.89
2017-03-18T08:08:47.661Z,10.71
2017-03-18T08:09:28.151Z,10.64
2017-03-18T08:10:08.689Z,10.66
2017-03-18T08:10:49.195Z,10.71
2017-03-18T08:11:29.715Z,10.81
2017-03-18T08:12:10.245Z,10.67
2017-03-18T08:12:50.758Z,10.76
2017-03-18T08:13:31.403Z,10.76
2017-03-18T08:14:11.905Z,10.64
2017-03-18T08:14:52.502Z,10.78
2017-03-18T08:15:32.951Z,10.78
2017-03-18T08:16:13.465Z,10.66
2017-03-18T08:16:54.024Z,10.64
2017-03-18T08:17:34.481Z,10.79
2017-03-18T08:18:14.993Z,10.84
2017-03-18T08:18:55.426Z,10.74
2017-03-18T08:19:36.016Z,10.84
2017-03-18T08:20:16.492Z,10.86
2017-03-18T08:20:57.021Z,10.88
2017-03-18T08:21:37.600Z,10.86
2017-03-18T08:22:18.118Z,10.74
2017-03-18T08:22:59.063Z,10.81
2017-03-18T08:23:39.505Z,10.78
2017-03-18T08:24:20.022Z,10.64
2017-03-18T08:25:00.521Z,10.52
2017-03-18T08:25:41.034Z,10.53
2017-03-18T08:26:21.558Z,10.48
2017-03-18T08:27:02.135Z,10.52
2017-03-18T08:27:42.594Z,10.6
2017-03-18T08:28:23.175Z,10.73
2017-03-18T08:29:03.628Z,10.78
2017-03-18T08:29:45.000Z,10.84
2017-03-18T08:30:25.528Z,10.84
2017-03-18T08:31:05.987Z,10.84
2017-03-18T08:31:46.466Z,10.82
2017-03-18T08:32:27.018Z,10.74
2017-03-18T08:33:07.487Z,10.81
2017-03-18T08:33:47.984Z,10.79
2017-03-18T08:34:28.481Z,10.82
2017-03-18T08:35:09.011Z,10.81
2017-03-18T08:35:49.488Z,10.82
2017-03-18T08:36:29.992Z,10.78
2017-03-18T08:37:10.440Z,10.86
2017-03-18T08:37:51.088Z,10.74
2017-03-18T08:38:31.606Z,10.78
2017-03-18T08:39:12.071Z,10.79
2017-03-18T08:39:52.560Z,10.78
2017-03-18T08:40:33.274Z,10.81
2017-03-18T08:42:32.621Z,10.79
2017-03-18T08:43:14.032Z,10.91
2017-03-18T08:43:54.575Z,10.99
2017-03-18T08:44:34.980Z,10.91
2017-03-18T08:45:15.452Z,11.02
2017-03-18T08:45:56.026Z,10.96